sensor_id;sensor_type;location;lat;lon;timestamp;P1;durP1;ratioP1;P2;durP2;ratioP2
13943;SDS011;7044;53.286;8.534;2023-07-31T00:01:18;6.13;;;1.80;;
13943;SDS011;7044;53.286;8.534;2023-07-31T00:03:45;6.13;;;2.28;;
13943;SDS011;7044;53.286;8.534;2023-07-31T00:06:12;8.48;;;2.25;;
13943;SDS011;7044;53.286;8.534;2023-07-31T00:08:38;5.97;;;2.38;;
13943;SDS011;7044;53.286;8.534;2023-07-31T00:11:07;2.50;;;2.00;;
13943;SDS011;7044;53.286;8.534;2023-07-31T00:13:33;5.55;;;2.50;;
13943;SDS011;7044;53.286;8.534;2023-07-31T00:16:00;7.68;;;2.55;;
13943;SDS011;7044;53.286;8.534;2023-07-31T00:18:27;4.85;;;2.92;;
13943;SDS011;7044;53.286;8.534;2023-07-31T00:20:54;13.38;;;3.10;;
13943;SDS011;7044;53.286;8.534;2023-07-31T00:23:21;5.13;;;1.90;;
13943;SDS011;7044;53.286;8.534;2023-07-31T00:25:47;4.35;;;2.05;;
13943;SDS011;7044;53.286;8.534;2023-07-31T00:28:15;5.80;;;2.63;;
13943;SDS011;7044;53.286;8.534;2023-07-31T00:30:42;4.68;;;2.17;;
13943;SDS011;7044;53.286;8.534;2023-07-31T00:33:09;4.75;;;2.50;;
13943;SDS011;7044;53.286;8.534;2023-07-31T00:35:36;5.50;;;2.33;;
13943;SDS011;7044;53.286;8.534;2023-07-31T00:38:02;7.72;;;2.40;;
13943;SDS011;7044;53.286;8.534;2023-07-31T00:40:33;5.53;;;2.40;;
13943;SDS011;7044;53.286;8.534;2023-07-31T00:43:01;7.15;;;2.20;;
13943;SDS011;7044;53.286;8.534;2023-07-31T00:45:29;4.20;;;2.58;;
13943;SDS011;7044;53.286;8.534;2023-07-31T00:47:57;7.13;;;2.47;;
13943;SDS011;7044;53.286;8.534;2023-07-31T00:50:24;6.93;;;2.10;;
13943;SDS011;7044;53.286;8.534;2023-07-31T00:52:51;4.88;;;2.28;;
13943;SDS011;7044;53.286;8.534;2023-07-31T00:55:18;3.33;;;2.30;;
13943;SDS011;7044;53.286;8.534;2023-07-31T00:57:46;8.55;;;2.30;;
13943;SDS011;7044;53.286;8.534;2023-07-31T01:00:14;5.75;;;2.63;;
13943;SDS011;7044;53.286;8.534;2023-07-31T01:02:42;6.03;;;2.33;;
13943;SDS011;7044;53.286;8.534;2023-07-31T01:05:09;6.85;;;2.53;;
13943;SDS011;7044;53.286;8.534;2023-07-31T01:07:39;7.47;;;1.95;;
13943;SDS011;7044;53.286;8.534;2023-07-31T01:10:12;6.07;;;2.20;;
13943;SDS011;7044;53.286;8.534;2023-07-31T01:12:42;5.10;;;2.45;;
13943;SDS011;7044;53.286;8.534;2023-07-31T01:15:12;4.78;;;2.17;;
13943;SDS011;7044;53.286;8.534;2023-07-31T01:17:40;5.80;;;2.20;;
13943;SDS011;7044;53.286;8.534;2023-07-31T01:20:10;5.82;;;2.33;;
13943;SDS011;7044;53.286;8.534;2023-07-31T01:22:46;3.75;;;2.30;;
13943;SDS011;7044;53.286;8.534;2023-07-31T01:25:31;5.68;;;2.17;;
13943;SDS011;7044;53.286;8.534;2023-07-31T01:28:31;4.97;;;2.10;;
13943;SDS011;7044;53.286;8.534;2023-07-31T01:31:05;2.50;;;1.90;;
13943;SDS011;7044;53.286;8.534;2023-07-31T01:33:36;5.15;;;2.28;;
13943;SDS011;7044;53.286;8.534;2023-07-31T01:36:04;2.78;;;1.73;;
13943;SDS011;7044;53.286;8.534;2023-07-31T01:38:31;1.98;;;1.77;;
13943;SDS011;7044;53.286;8.534;2023-07-31T01:40:59;4.05;;;2.05;;
13943;SDS011;7044;53.286;8.534;2023-07-31T01:43:25;5.93;;;1.98;;
13943;SDS011;7044;53.286;8.534;2023-07-31T01:45:54;2.30;;;2.10;;
13943;SDS011;7044;53.286;8.534;2023-07-31T01:48:20;2.10;;;1.75;;
13943;SDS011;7044;53.286;8.534;2023-07-31T01:50:47;2.47;;;1.90;;
13943;SDS011;7044;53.286;8.534;2023-07-31T01:53:14;3.17;;;2.05;;
13943;SDS011;7044;53.286;8.534;2023-07-31T01:55:41;6.88;;;2.08;;
13943;SDS011;7044;53.286;8.534;2023-07-31T01:58:08;3.60;;;2.17;;
13943;SDS011;7044;53.286;8.534;2023-07-31T02:00:35;2.75;;;1.88;;
13943;SDS011;7044;53.286;8.534;2023-07-31T02:03:03;3.75;;;1.90;;
13943;SDS011;7044;53.286;8.534;2023-07-31T02:05:30;3.42;;;1.80;;
13943;SDS011;7044;53.286;8.534;2023-07-31T02:07:57;3.92;;;1.88;;
13943;SDS011;7044;53.286;8.534;2023-07-31T02:10:23;3.28;;;1.67;;
13943;SDS011;7044;53.286;8.534;2023-07-31T02:12:50;2.42;;;1.65;;
13943;SDS011;7044;53.286;8.534;2023-07-31T02:15:17;2.60;;;1.88;;
13943;SDS011;7044;53.286;8.534;2023-07-31T02:17:44;3.03;;;1.80;;
13943;SDS011;7044;53.286;8.534;2023-07-31T02:20:12;2.65;;;1.83;;
13943;SDS011;7044;53.286;8.534;2023-07-31T02:22:39;2.55;;;1.63;;
13943;SDS011;7044;53.286;8.534;2023-07-31T02:25:06;2.22;;;1.70;;
13943;SDS011;7044;53.286;8.534;2023-07-31T02:27:34;2.70;;;1.67;;
13943;SDS011;7044;53.286;8.534;2023-07-31T02:30:01;5.38;;;1.98;;
13943;SDS011;7044;53.286;8.534;2023-07-31T02:32:28;2.08;;;1.70;;
13943;SDS011;7044;53.286;8.534;2023-07-31T02:34:55;3.40;;;1.60;;
13943;SDS011;7044;53.286;8.534;2023-07-31T02:37:23;2.45;;;1.73;;
13943;SDS011;7044;53.286;8.534;2023-07-31T02:39:50;3.25;;;1.60;;
13943;SDS011;7044;53.286;8.534;2023-07-31T02:42:17;4.05;;;1.70;;
13943;SDS011;7044;53.286;8.534;2023-07-31T02:44:44;2.58;;;1.80;;
13943;SDS011;7044;53.286;8.534;2023-07-31T02:47:10;2.25;;;1.70;;
13943;SDS011;7044;53.286;8.534;2023-07-31T02:49:37;2.28;;;1.58;;
13943;SDS011;7044;53.286;8.534;2023-07-31T02:52:04;5.95;;;1.67;;
13943;SDS011;7044;53.286;8.534;2023-07-31T02:54:33;2.47;;;1.60;;
13943;SDS011;7044;53.286;8.534;2023-07-31T02:57:00;2.33;;;1.70;;
13943;SDS011;7044;53.286;8.534;2023-07-31T02:59:27;3.13;;;1.35;;
13943;SDS011;7044;53.286;8.534;2023-07-31T03:01:54;3.67;;;1.75;;
13943;SDS011;7044;53.286;8.534;2023-07-31T03:04:21;3.55;;;1.83;;
13943;SDS011;7044;53.286;8.534;2023-07-31T03:06:48;3.03;;;1.60;;
13943;SDS011;7044;53.286;8.534;2023-07-31T03:09:14;2.58;;;1.92;;
13943;SDS011;7044;53.286;8.534;2023-07-31T03:11:43;2.78;;;1.90;;
13943;SDS011;7044;53.286;8.534;2023-07-31T03:14:09;2.08;;;1.77;;
13943;SDS011;7044;53.286;8.534;2023-07-31T03:16:36;2.78;;;1.90;;
13943;SDS011;7044;53.286;8.534;2023-07-31T03:19:03;1.83;;;1.60;;
13943;SDS011;7044;53.286;8.534;2023-07-31T03:21:30;2.55;;;1.85;;
13943;SDS011;7044;53.286;8.534;2023-07-31T03:23:57;1.95;;;1.73;;
13943;SDS011;7044;53.286;8.534;2023-07-31T03:26:24;5.38;;;2.22;;
13943;SDS011;7044;53.286;8.534;2023-07-31T03:28:52;2.13;;;1.92;;
13943;SDS011;7044;53.286;8.534;2023-07-31T03:31:19;2.63;;;1.88;;
13943;SDS011;7044;53.286;8.534;2023-07-31T03:33:46;1.65;;;1.55;;
13943;SDS011;7044;53.286;8.534;2023-07-31T03:36:13;2.05;;;1.77;;
13943;SDS011;7044;53.286;8.534;2023-07-31T03:38:39;3.50;;;1.80;;
13943;SDS011;7044;53.286;8.534;2023-07-31T03:41:06;3.95;;;1.90;;
13943;SDS011;7044;53.286;8.534;2023-07-31T03:43:33;1.88;;;1.70;;
13943;SDS011;7044;53.286;8.534;2023-07-31T03:46:02;2.65;;;1.83;;
13943;SDS011;7044;53.286;8.534;2023-07-31T03:48:29;1.95;;;1.80;;
13943;SDS011;7044;53.286;8.534;2023-07-31T03:50:55;3.85;;;1.95;;
13943;SDS011;7044;53.286;8.534;2023-07-31T03:53:22;2.15;;;1.80;;
13943;SDS011;7044;53.286;8.534;2023-07-31T03:55:49;3.53;;;2.03;;
13943;SDS011;7044;53.286;8.534;2023-07-31T03:58:16;2.40;;;1.80;;
13943;SDS011;7044;53.286;8.534;2023-07-31T04:00:43;3.03;;;2.42;;
13943;SDS011;7044;53.286;8.534;2023-07-31T04:03:11;3.22;;;2.50;;
13943;SDS011;7044;53.286;8.534;2023-07-31T04:05:38;2.63;;;2.30;;
13943;SDS011;7044;53.286;8.534;2023-07-31T04:08:05;3.35;;;2.38;;
13943;SDS011;7044;53.286;8.534;2023-07-31T04:10:32;3.20;;;2.00;;
13943;SDS011;7044;53.286;8.534;2023-07-31T04:12:59;4.47;;;2.25;;
13943;SDS011;7044;53.286;8.534;2023-07-31T04:15:26;3.80;;;2.00;;
13943;SDS011;7044;53.286;8.534;2023-07-31T04:17:53;2.08;;;1.88;;
13943;SDS011;7044;53.286;8.534;2023-07-31T04:20:21;2.75;;;2.33;;
13943;SDS011;7044;53.286;8.534;2023-07-31T04:22:48;2.25;;;2.05;;
13943;SDS011;7044;53.286;8.534;2023-07-31T04:25:15;2.25;;;2.05;;
13943;SDS011;7044;53.286;8.534;2023-07-31T04:27:41;3.55;;;1.90;;
13943;SDS011;7044;53.286;8.534;2023-07-31T04:30:08;2.13;;;1.92;;
13943;SDS011;7044;53.286;8.534;2023-07-31T04:32:35;1.80;;;1.65;;
13943;SDS011;7044;53.286;8.534;2023-07-31T04:35:02;3.35;;;2.00;;
13943;SDS011;7044;53.286;8.534;2023-07-31T04:37:31;1.67;;;1.58;;
13943;SDS011;7044;53.286;8.534;2023-07-31T04:39:58;3.60;;;1.80;;
13943;SDS011;7044;53.286;8.534;2023-07-31T04:42:25;1.75;;;1.63;;
13943;SDS011;7044;53.286;8.534;2023-07-31T04:44:51;4.38;;;1.90;;
13943;SDS011;7044;53.286;8.534;2023-07-31T04:47:19;2.40;;;1.52;;
13943;SDS011;7044;53.286;8.534;2023-07-31T04:49:45;1.52;;;1.42;;
13943;SDS011;7044;53.286;8.534;2023-07-31T04:52:12;1.40;;;1.30;;
13943;SDS011;7044;53.286;8.534;2023-07-31T04:54:40;3.30;;;2.95;;
13943;SDS011;7044;53.286;8.534;2023-07-31T04:57:07;1.45;;;1.35;;
13943;SDS011;7044;53.286;8.534;2023-07-31T04:59:34;1.20;;;1.10;;
13943;SDS011;7044;53.286;8.534;2023-07-31T05:02:02;1.25;;;1.15;;
13943;SDS011;7044;53.286;8.534;2023-07-31T05:04:29;1.75;;;1.20;;
13943;SDS011;7044;53.286;8.534;2023-07-31T05:06:55;2.20;;;1.20;;
13943;SDS011;7044;53.286;8.534;2023-07-31T05:09:22;1.63;;;1.20;;
13943;SDS011;7044;53.286;8.534;2023-07-31T05:11:50;3.08;;;1.13;;
13943;SDS011;7044;53.286;8.534;2023-07-31T05:14:17;1.63;;;1.30;;
13943;SDS011;7044;53.286;8.534;2023-07-31T05:16:45;1.20;;;1.10;;
13943;SDS011;7044;53.286;8.534;2023-07-31T05:19:12;1.90;;;1.05;;
13943;SDS011;7044;53.286;8.534;2023-07-31T05:21:39;0.85;;;0.85;;
13943;SDS011;7044;53.286;8.534;2023-07-31T05:24:06;1.08;;;0.98;;
13943;SDS011;7044;53.286;8.534;2023-07-31T05:26:33;1.30;;;1.08;;
13943;SDS011;7044;53.286;8.534;2023-07-31T05:29:01;1.00;;;1.00;;
13943;SDS011;7044;53.286;8.534;2023-07-31T05:31:28;0.90;;;0.90;;
13943;SDS011;7044;53.286;8.534;2023-07-31T05:33:54;1.20;;;1.00;;
13943;SDS011;7044;53.286;8.534;2023-07-31T05:36:21;0.80;;;0.80;;
13943;SDS011;7044;53.286;8.534;2023-07-31T05:38:48;1.10;;;1.00;;
13943;SDS011;7044;53.286;8.534;2023-07-31T05:41:15;1.58;;;1.10;;
13943;SDS011;7044;53.286;8.534;2023-07-31T05:43:43;1.77;;;0.75;;
13943;SDS011;7044;53.286;8.534;2023-07-31T05:46:12;0.90;;;0.90;;
13943;SDS011;7044;53.286;8.534;2023-07-31T05:48:39;0.95;;;0.93;;
13943;SDS011;7044;53.286;8.534;2023-07-31T05:51:06;0.90;;;0.90;;
13943;SDS011;7044;53.286;8.534;2023-07-31T05:53:33;1.15;;;1.05;;
13943;SDS011;7044;53.286;8.534;2023-07-31T05:56:01;0.85;;;0.85;;
13943;SDS011;7044;53.286;8.534;2023-07-31T05:58:28;0.77;;;0.77;;
13943;SDS011;7044;53.286;8.534;2023-07-31T06:00:54;1.05;;;0.80;;
13943;SDS011;7044;53.286;8.534;2023-07-31T06:03:22;0.82;;;0.80;;
13943;SDS011;7044;53.286;8.534;2023-07-31T06:05:49;0.85;;;0.85;;
13943;SDS011;7044;53.286;8.534;2023-07-31T06:08:16;0.70;;;0.70;;
13943;SDS011;7044;53.286;8.534;2023-07-31T06:10:43;1.88;;;0.65;;
13943;SDS011;7044;53.286;8.534;2023-07-31T06:13:10;0.95;;;0.80;;
13943;SDS011;7044;53.286;8.534;2023-07-31T06:15:36;0.60;;;0.60;;
13943;SDS011;7044;53.286;8.534;2023-07-31T06:18:03;0.75;;;0.65;;
13943;SDS011;7044;53.286;8.534;2023-07-31T06:20:34;1.00;;;0.98;;
13943;SDS011;7044;53.286;8.534;2023-07-31T06:23:05;0.70;;;0.70;;
13943;SDS011;7044;53.286;8.534;2023-07-31T06:25:32;0.52;;;0.52;;
13943;SDS011;7044;53.286;8.534;2023-07-31T06:27:59;0.75;;;0.60;;
13943;SDS011;7044;53.286;8.534;2023-07-31T06:30:26;1.70;;;0.80;;
13943;SDS011;7044;53.286;8.534;2023-07-31T06:32:52;1.20;;;0.70;;
13943;SDS011;7044;53.286;8.534;2023-07-31T06:35:19;0.52;;;0.52;;
13943;SDS011;7044;53.286;8.534;2023-07-31T06:37:47;0.60;;;0.60;;
13943;SDS011;7044;53.286;8.534;2023-07-31T06:40:16;0.70;;;0.70;;
13943;SDS011;7044;53.286;8.534;2023-07-31T06:42:43;1.85;;;0.70;;
13943;SDS011;7044;53.286;8.534;2023-07-31T06:45:10;0.70;;;0.70;;
13943;SDS011;7044;53.286;8.534;2023-07-31T06:47:37;0.93;;;0.50;;
13943;SDS011;7044;53.286;8.534;2023-07-31T06:50:04;0.75;;;0.75;;
13943;SDS011;7044;53.286;8.534;2023-07-31T06:52:31;0.70;;;0.70;;
13943;SDS011;7044;53.286;8.534;2023-07-31T06:55:03;0.57;;;0.57;;
13943;SDS011;7044;53.286;8.534;2023-07-31T06:57:44;1.17;;;0.70;;
13943;SDS011;7044;53.286;8.534;2023-07-31T07:00:11;1.00;;;0.65;;
13943;SDS011;7044;53.286;8.534;2023-07-31T07:02:39;0.60;;;0.60;;
13943;SDS011;7044;53.286;8.534;2023-07-31T07:05:06;0.70;;;0.70;;
13943;SDS011;7044;53.286;8.534;2023-07-31T07:07:33;0.50;;;0.50;;
13943;SDS011;7044;53.286;8.534;2023-07-31T07:10:00;0.77;;;0.70;;
13943;SDS011;7044;53.286;8.534;2023-07-31T07:12:30;0.88;;;0.70;;
13943;SDS011;7044;53.286;8.534;2023-07-31T07:14:58;0.85;;;0.73;;
13943;SDS011;7044;53.286;8.534;2023-07-31T07:17:25;0.68;;;0.68;;
13943;SDS011;7044;53.286;8.534;2023-07-31T07:19:52;2.00;;;0.60;;
13943;SDS011;7044;53.286;8.534;2023-07-31T07:22:20;0.60;;;0.60;;
13943;SDS011;7044;53.286;8.534;2023-07-31T07:24:47;0.82;;;0.68;;
13943;SDS011;7044;53.286;8.534;2023-07-31T07:27:15;0.50;;;0.50;;
13943;SDS011;7044;53.286;8.534;2023-07-31T07:29:41;0.30;;;0.30;;
13943;SDS011;7044;53.286;8.534;2023-07-31T07:32:08;0.73;;;0.55;;
13943;SDS011;7044;53.286;8.534;2023-07-31T07:34:37;0.73;;;0.50;;
13943;SDS011;7044;53.286;8.534;2023-07-31T07:37:04;0.40;;;0.40;;
13943;SDS011;7044;53.286;8.534;2023-07-31T07:39:31;0.50;;;0.50;;
13943;SDS011;7044;53.286;8.534;2023-07-31T07:41:58;2.22;;;0.57;;
13943;SDS011;7044;53.286;8.534;2023-07-31T07:44:26;0.98;;;0.70;;
13943;SDS011;7044;53.286;8.534;2023-07-31T07:46:53;1.30;;;0.60;;
13943;SDS011;7044;53.286;8.534;2023-07-31T07:49:20;0.52;;;0.40;;
13943;SDS011;7044;53.286;8.534;2023-07-31T07:51:47;0.65;;;0.52;;
13943;SDS011;7044;53.286;8.534;2023-07-31T07:54:14;1.20;;;0.40;;
13943;SDS011;7044;53.286;8.534;2023-07-31T07:56:42;0.60;;;0.50;;
13943;SDS011;7044;53.286;8.534;2023-07-31T07:59:08;0.60;;;0.60;;
13943;SDS011;7044;53.286;8.534;2023-07-31T08:01:37;0.57;;;0.57;;
13943;SDS011;7044;53.286;8.534;2023-07-31T08:04:03;0.80;;;0.80;;
13943;SDS011;7044;53.286;8.534;2023-07-31T08:06:30;0.68;;;0.60;;
13943;SDS011;7044;53.286;8.534;2023-07-31T08:08:57;0.93;;;0.75;;
13943;SDS011;7044;53.286;8.534;2023-07-31T08:11:24;1.42;;;0.75;;
13943;SDS011;7044;53.286;8.534;2023-07-31T08:13:51;1.75;;;0.50;;
13943;SDS011;7044;53.286;8.534;2023-07-31T08:16:18;0.65;;;0.50;;
13943;SDS011;7044;53.286;8.534;2023-07-31T08:18:46;0.88;;;0.73;;
13943;SDS011;7044;53.286;8.534;2023-07-31T08:21:13;2.00;;;0.60;;
13943;SDS011;7044;53.286;8.534;2023-07-31T08:23:40;0.57;;;0.55;;
13943;SDS011;7044;53.286;8.534;2023-07-31T08:26:07;0.65;;;0.50;;
13943;SDS011;7044;53.286;8.534;2023-07-31T08:28:34;0.65;;;0.65;;
13943;SDS011;7044;53.286;8.534;2023-07-31T08:31:01;0.95;;;0.85;;
13943;SDS011;7044;53.286;8.534;2023-07-31T08:33:28;3.72;;;2.10;;
13943;SDS011;7044;53.286;8.534;2023-07-31T08:35:56;5.15;;;2.63;;
13943;SDS011;7044;53.286;8.534;2023-07-31T08:38:25;5.28;;;2.58;;
13943;SDS011;7044;53.286;8.534;2023-07-31T08:40:54;6.35;;;3.28;;
13943;SDS011;7044;53.286;8.534;2023-07-31T08:43:22;8.18;;;4.15;;
13943;SDS011;7044;53.286;8.534;2023-07-31T08:45:52;10.52;;;4.72;;
13943;SDS011;7044;53.286;8.534;2023-07-31T08:48:20;7.63;;;4.47;;
13943;SDS011;7044;53.286;8.534;2023-07-31T08:50:48;11.25;;;4.75;;
13943;SDS011;7044;53.286;8.534;2023-07-31T08:53:16;10.80;;;4.30;;
13943;SDS011;7044;53.286;8.534;2023-07-31T08:55:44;9.35;;;5.22;;
13943;SDS011;7044;53.286;8.534;2023-07-31T08:58:11;13.38;;;5.00;;
13943;SDS011;7044;53.286;8.534;2023-07-31T09:00:39;12.55;;;4.97;;
13943;SDS011;7044;53.286;8.534;2023-07-31T09:03:09;13.70;;;5.95;;
13943;SDS011;7044;53.286;8.534;2023-07-31T09:05:39;12.82;;;5.78;;
13943;SDS011;7044;53.286;8.534;2023-07-31T09:08:08;12.27;;;5.38;;
13943;SDS011;7044;53.286;8.534;2023-07-31T09:10:37;12.52;;;5.45;;
13943;SDS011;7044;53.286;8.534;2023-07-31T09:13:07;15.23;;;6.22;;
13943;SDS011;7044;53.286;8.534;2023-07-31T09:15:35;10.48;;;6.00;;
13943;SDS011;7044;53.286;8.534;2023-07-31T09:18:02;12.18;;;6.10;;
13943;SDS011;7044;53.286;8.534;2023-07-31T09:20:30;11.05;;;5.97;;
13943;SDS011;7044;53.286;8.534;2023-07-31T09:23:02;11.82;;;5.97;;
13943;SDS011;7044;53.286;8.534;2023-07-31T09:25:33;11.85;;;5.30;;
13943;SDS011;7044;53.286;8.534;2023-07-31T09:28:02;8.48;;;5.50;;
13943;SDS011;7044;53.286;8.534;2023-07-31T09:30:30;15.13;;;5.88;;
13943;SDS011;7044;53.286;8.534;2023-07-31T09:33:09;11.90;;;4.68;;
13943;SDS011;7044;53.286;8.534;2023-07-31T09:35:36;18.58;;;4.47;;
13943;SDS011;7044;53.286;8.534;2023-07-31T09:38:06;6.97;;;4.45;;
13943;SDS011;7044;53.286;8.534;2023-07-31T09:40:34;5.82;;;4.22;;
13943;SDS011;7044;53.286;8.534;2023-07-31T09:43:04;8.10;;;4.30;;
13943;SDS011;7044;53.286;8.534;2023-07-31T09:45:33;10.52;;;4.13;;
13943;SDS011;7044;53.286;8.534;2023-07-31T09:48:01;6.50;;;4.30;;
13943;SDS011;7044;53.286;8.534;2023-07-31T09:50:29;7.53;;;4.30;;
13943;SDS011;7044;53.286;8.534;2023-07-31T09:52:56;5.70;;;4.68;;
13943;SDS011;7044;53.286;8.534;2023-07-31T09:55:23;8.35;;;5.20;;
13943;SDS011;7044;53.286;8.534;2023-07-31T09:57:50;6.57;;;4.80;;
13943;SDS011;7044;53.286;8.534;2023-07-31T10:00:19;8.20;;;5.03;;
13943;SDS011;7044;53.286;8.534;2023-07-31T10:02:50;8.52;;;4.45;;
13943;SDS011;7044;53.286;8.534;2023-07-31T10:05:19;7.28;;;4.38;;
13943;SDS011;7044;53.286;8.534;2023-07-31T10:07:52;6.43;;;4.10;;
13943;SDS011;7044;53.286;8.534;2023-07-31T10:10:21;8.10;;;4.70;;
13943;SDS011;7044;53.286;8.534;2023-07-31T10:12:48;7.75;;;4.18;;
13943;SDS011;7044;53.286;8.534;2023-07-31T10:15:15;6.50;;;3.47;;
13943;SDS011;7044;53.286;8.534;2023-07-31T10:17:44;5.15;;;3.63;;
13943;SDS011;7044;53.286;8.534;2023-07-31T10:20:13;6.63;;;3.40;;
13943;SDS011;7044;53.286;8.534;2023-07-31T10:22:41;9.13;;;3.30;;
13943;SDS011;7044;53.286;8.534;2023-07-31T10:25:09;8.13;;;3.17;;
13943;SDS011;7044;53.286;8.534;2023-07-31T10:27:36;6.88;;;2.80;;
13943;SDS011;7044;53.286;8.534;2023-07-31T10:30:05;3.28;;;2.50;;
13943;SDS011;7044;53.286;8.534;2023-07-31T10:32:37;5.93;;;2.53;;
13943;SDS011;7044;53.286;8.534;2023-07-31T10:35:06;6.18;;;2.83;;
13943;SDS011;7044;53.286;8.534;2023-07-31T10:37:36;2.90;;;2.10;;
13943;SDS011;7044;53.286;8.534;2023-07-31T10:40:04;4.07;;;2.40;;
13943;SDS011;7044;53.286;8.534;2023-07-31T10:42:33;3.10;;;2.30;;
13943;SDS011;7044;53.286;8.534;2023-07-31T10:45:02;4.97;;;2.30;;
13943;SDS011;7044;53.286;8.534;2023-07-31T10:47:30;3.13;;;2.10;;
13943;SDS011;7044;53.286;8.534;2023-07-31T10:50:16;3.83;;;2.20;;
13943;SDS011;7044;53.286;8.534;2023-07-31T10:52:46;4.20;;;2.30;;
13943;SDS011;7044;53.286;8.534;2023-07-31T10:55:15;2.50;;;2.00;;
13943;SDS011;7044;53.286;8.534;2023-07-31T10:57:48;2.70;;;2.03;;
13943;SDS011;7044;53.286;8.534;2023-07-31T11:00:19;3.38;;;2.30;;
13943;SDS011;7044;53.286;8.534;2023-07-31T11:02:57;2.55;;;2.20;;
13943;SDS011;7044;53.286;8.534;2023-07-31T11:08:16;4.18;;;2.10;;
13943;SDS011;7044;53.286;8.534;2023-07-31T11:10:45;3.17;;;2.10;;
13943;SDS011;7044;53.286;8.534;2023-07-31T11:13:13;2.60;;;1.90;;
13943;SDS011;7044;53.286;8.534;2023-07-31T11:15:40;3.05;;;1.92;;
13943;SDS011;7044;53.286;8.534;2023-07-31T11:18:07;2.65;;;1.60;;
13943;SDS011;7044;53.286;8.534;2023-07-31T11:20:36;2.83;;;2.13;;
13943;SDS011;7044;53.286;8.534;2023-07-31T11:23:05;1.92;;;1.50;;
13943;SDS011;7044;53.286;8.534;2023-07-31T11:25:34;2.55;;;1.60;;
13943;SDS011;7044;53.286;8.534;2023-07-31T11:28:03;1.75;;;1.40;;
13943;SDS011;7044;53.286;8.534;2023-07-31T11:30:30;2.25;;;1.33;;
13943;SDS011;7044;53.286;8.534;2023-07-31T11:32:57;3.50;;;1.40;;
13943;SDS011;7044;53.286;8.534;2023-07-31T11:35:25;2.03;;;1.48;;
13943;SDS011;7044;53.286;8.534;2023-07-31T11:37:52;1.70;;;1.10;;
13943;SDS011;7044;53.286;8.534;2023-07-31T11:40:20;1.10;;;1.00;;
13943;SDS011;7044;53.286;8.534;2023-07-31T11:42:47;1.25;;;1.15;;
13943;SDS011;7044;53.286;8.534;2023-07-31T11:45:14;1.77;;;1.10;;
13943;SDS011;7044;53.286;8.534;2023-07-31T11:47:41;1.08;;;0.95;;
13943;SDS011;7044;53.286;8.534;2023-07-31T11:50:09;1.10;;;1.00;;
13943;SDS011;7044;53.286;8.534;2023-07-31T11:52:38;1.42;;;0.95;;
13943;SDS011;7044;53.286;8.534;2023-07-31T11:55:08;0.95;;;0.95;;
13943;SDS011;7044;53.286;8.534;2023-07-31T11:57:37;0.77;;;0.77;;
13943;SDS011;7044;53.286;8.534;2023-07-31T12:00:06;1.00;;;0.90;;
13943;SDS011;7044;53.286;8.534;2023-07-31T12:02:36;0.98;;;0.90;;
13943;SDS011;7044;53.286;8.534;2023-07-31T12:05:04;0.60;;;0.60;;
13943;SDS011;7044;53.286;8.534;2023-07-31T12:10:24;0.75;;;0.75;;
13943;SDS011;7044;53.286;8.534;2023-07-31T12:13:03;0.85;;;0.85;;
13943;SDS011;7044;53.286;8.534;2023-07-31T12:15:35;0.82;;;0.80;;
13943;SDS011;7044;53.286;8.534;2023-07-31T12:18:06;1.85;;;0.60;;
13943;SDS011;7044;53.286;8.534;2023-07-31T12:20:34;0.65;;;0.65;;
13943;SDS011;7044;53.286;8.534;2023-07-31T12:23:01;1.05;;;0.80;;
13943;SDS011;7044;53.286;8.534;2023-07-31T12:25:29;3.60;;;0.75;;
13943;SDS011;7044;53.286;8.534;2023-07-31T12:27:57;0.73;;;0.73;;
13943;SDS011;7044;53.286;8.534;2023-07-31T12:30:28;2.28;;;0.80;;
13943;SDS011;7044;53.286;8.534;2023-07-31T12:32:55;0.50;;;0.50;;
13943;SDS011;7044;53.286;8.534;2023-07-31T12:35:22;0.65;;;0.65;;
13943;SDS011;7044;53.286;8.534;2023-07-31T12:37:49;1.80;;;0.68;;
13943;SDS011;7044;53.286;8.534;2023-07-31T12:40:16;0.88;;;0.88;;
13943;SDS011;7044;53.286;8.534;2023-07-31T12:42:43;0.93;;;0.90;;
13943;SDS011;7044;53.286;8.534;2023-07-31T12:45:10;1.08;;;1.00;;
13943;SDS011;7044;53.286;8.534;2023-07-31T12:47:38;1.10;;;0.80;;
13943;SDS011;7044;53.286;8.534;2023-07-31T12:50:05;3.20;;;1.10;;
13943;SDS011;7044;53.286;8.534;2023-07-31T12:52:33;2.25;;;0.90;;
13943;SDS011;7044;53.286;8.534;2023-07-31T12:55:00;1.25;;;1.05;;
13943;SDS011;7044;53.286;8.534;2023-07-31T12:57:27;1.00;;;0.88;;
13943;SDS011;7044;53.286;8.534;2023-07-31T12:59:54;1.10;;;1.00;;
13943;SDS011;7044;53.286;8.534;2023-07-31T13:02:20;0.85;;;0.85;;
13943;SDS011;7044;53.286;8.534;2023-07-31T13:04:49;1.73;;;1.00;;
13943;SDS011;7044;53.286;8.534;2023-07-31T13:07:16;1.42;;;1.20;;
13943;SDS011;7044;53.286;8.534;2023-07-31T13:09:43;1.58;;;1.40;;
13943;SDS011;7044;53.286;8.534;2023-07-31T13:12:10;1.38;;;1.27;;
13943;SDS011;7044;53.286;8.534;2023-07-31T13:14:37;1.38;;;1.27;;
13943;SDS011;7044;53.286;8.534;2023-07-31T13:17:03;1.38;;;1.27;;
13943;SDS011;7044;53.286;8.534;2023-07-31T13:19:30;2.25;;;1.48;;
13943;SDS011;7044;53.286;8.534;2023-07-31T13:21:58;2.70;;;1.60;;
13943;SDS011;7044;53.286;8.534;2023-07-31T13:24:25;1.42;;;1.33;;
13943;SDS011;7044;53.286;8.534;2023-07-31T13:26:52;2.22;;;1.30;;
13943;SDS011;7044;53.286;8.534;2023-07-31T13:29:19;1.55;;;1.45;;
13943;SDS011;7044;53.286;8.534;2023-07-31T13:31:46;1.55;;;1.42;;
13943;SDS011;7044;53.286;8.534;2023-07-31T13:34:13;1.33;;;1.23;;
13943;SDS011;7044;53.286;8.534;2023-07-31T13:36:40;2.00;;;1.40;;
13943;SDS011;7044;53.286;8.534;2023-07-31T13:39:09;1.88;;;1.60;;
13943;SDS011;7044;53.286;8.534;2023-07-31T13:41:36;2.05;;;1.30;;
13943;SDS011;7044;53.286;8.534;2023-07-31T13:44:03;2.00;;;1.80;;
13943;SDS011;7044;53.286;8.534;2023-07-31T13:46:29;1.92;;;1.70;;
13943;SDS011;7044;53.286;8.534;2023-07-31T13:48:57;1.80;;;1.70;;
13943;SDS011;7044;53.286;8.534;2023-07-31T13:51:24;1.77;;;1.67;;
13943;SDS011;7044;53.286;8.534;2023-07-31T13:53:52;4.32;;;1.83;;
13943;SDS011;7044;53.286;8.534;2023-07-31T13:56:21;2.53;;;1.90;;
13943;SDS011;7044;53.286;8.534;2023-07-31T13:58:47;2.20;;;2.00;;
13943;SDS011;7044;53.286;8.534;2023-07-31T14:01:14;1.75;;;1.65;;
13943;SDS011;7044;53.286;8.534;2023-07-31T14:03:41;1.60;;;1.50;;
13943;SDS011;7044;53.286;8.534;2023-07-31T14:06:08;1.80;;;1.70;;
13943;SDS011;7044;53.286;8.534;2023-07-31T14:08:35;1.83;;;1.73;;
13943;SDS011;7044;53.286;8.534;2023-07-31T14:11:02;1.75;;;1.65;;
13943;SDS011;7044;53.286;8.534;2023-07-31T14:13:30;1.67;;;1.58;;
13943;SDS011;7044;53.286;8.534;2023-07-31T14:15:57;2.10;;;1.90;;
13943;SDS011;7044;53.286;8.534;2023-07-31T14:18:23;2.25;;;2.08;;
13943;SDS011;7044;53.286;8.534;2023-07-31T14:20:51;2.67;;;2.22;;
13943;SDS011;7044;53.286;8.534;2023-07-31T14:23:17;5.85;;;2.47;;
13943;SDS011;7044;53.286;8.534;2023-07-31T14:25:45;3.22;;;1.90;;
13943;SDS011;7044;53.286;8.534;2023-07-31T14:28:11;2.53;;;2.33;;
13943;SDS011;7044;53.286;8.534;2023-07-31T14:30:40;4.13;;;2.22;;
13943;SDS011;7044;53.286;8.534;2023-07-31T14:33:06;2.33;;;2.13;;
13943;SDS011;7044;53.286;8.534;2023-07-31T14:35:33;3.13;;;2.15;;
13943;SDS011;7044;53.286;8.534;2023-07-31T14:38:01;2.08;;;1.80;;
13943;SDS011;7044;53.286;8.534;2023-07-31T14:40:28;2.42;;;2.22;;
13943;SDS011;7044;53.286;8.534;2023-07-31T14:42:55;2.15;;;1.95;;
13943;SDS011;7044;53.286;8.534;2023-07-31T14:45:22;1.50;;;1.40;;
13943;SDS011;7044;53.286;8.534;2023-07-31T14:47:50;1.70;;;1.30;;
13943;SDS011;7044;53.286;8.534;2023-07-31T14:50:17;1.52;;;1.00;;
13943;SDS011;7044;53.286;8.534;2023-07-31T14:52:46;0.90;;;0.80;;
13943;SDS011;7044;53.286;8.534;2023-07-31T14:55:12;1.20;;;1.00;;
13943;SDS011;7044;53.286;8.534;2023-07-31T14:57:39;1.25;;;0.80;;
13943;SDS011;7044;53.286;8.534;2023-07-31T15:00:06;0.70;;;0.52;;
13943;SDS011;7044;53.286;8.534;2023-07-31T15:02:35;0.55;;;0.55;;
13943;SDS011;7044;53.286;8.534;2023-07-31T15:05:04;0.65;;;0.65;;
13943;SDS011;7044;53.286;8.534;2023-07-31T15:07:31;0.50;;;0.50;;
13943;SDS011;7044;53.286;8.534;2023-07-31T15:09:58;0.50;;;0.50;;